createdAt,value
2022-10-23T00:01:15.177Z,12.72
2022-10-23T00:03:42.746Z,12.74
2022-10-23T00:06:10.605Z,12.75
2022-10-23T00:08:37.796Z,12.75
2022-10-23T00:11:09.522Z,12.70
2022-10-23T00:13:36.958Z,12.66
2022-10-23T00:16:03.904Z,12.61
2022-10-23T00:18:31.103Z,12.59
2022-10-23T00:20:57.923Z,12.56
2022-10-23T00:23:25.137Z,12.48
2022-10-23T00:25:51.874Z,12.40
2022-10-23T00:28:18.522Z,12.39
2022-10-23T00:30:45.196Z,12.37
2022-10-23T00:33:11.975Z,12.36
2022-10-23T00:35:40.503Z,12.31
2022-10-23T00:38:08.995Z,12.26
2022-10-23T00:40:37.041Z,12.22
2022-10-23T00:43:04.582Z,12.19
2022-10-23T00:45:32.857Z,12.16
2022-10-23T00:48:01.413Z,12.14
2022-10-23T00:50:32.897Z,12.11
2022-10-23T00:53:03.033Z,12.07
2022-10-23T00:55:31.717Z,12.06
2022-10-23T00:57:58.703Z,12.05
2022-10-23T01:00:31.365Z,12.04
2022-10-23T01:02:59.468Z,12.02
2022-10-23T01:05:44.300Z,11.98
2022-10-23T01:08:35.187Z,11.95
2022-10-23T01:11:40.420Z,11.96
2022-10-23T01:14:26.094Z,11.98
2022-10-23T01:17:17.159Z,12.00
2022-10-23T01:19:54.310Z,11.96
2022-10-23T01:22:33.419Z,11.90
2022-10-23T01:25:10.716Z,11.82
2022-10-23T01:27:46.834Z,11.76
2022-10-23T01:30:16.295Z,11.69
2022-10-23T01:32:48.724Z,11.65
2022-10-23T01:35:22.087Z,11.62
2022-10-23T01:38:10.931Z,11.60
2022-10-23T01:40:49.923Z,11.59
2022-10-23T01:43:25.396Z,11.60
2022-10-23T01:46:00.557Z,11.62
2022-10-23T01:48:29.612Z,11.63
2022-10-23T01:51:01.925Z,11.63
2022-10-23T01:53:33.392Z,11.63
2022-10-23T01:56:03.613Z,11.63
2022-10-23T01:58:33.103Z,11.65
2022-10-23T02:01:05.233Z,11.70
2022-10-23T02:03:36.491Z,11.71
2022-10-23T02:06:03.618Z,11.73
2022-10-23T02:08:31.410Z,11.74
2022-10-23T02:11:01.165Z,11.78
2022-10-23T02:13:27.966Z,11.82
2022-10-23T02:16:13.982Z,11.82
2022-10-23T02:19:16.477Z,11.82
2022-10-23T02:21:58.540Z,11.81
2022-10-23T02:24:37.375Z,11.80
2022-10-23T02:27:12.471Z,11.77
2022-10-23T02:29:48.729Z,11.74
2022-10-23T02:32:19.449Z,11.70
2022-10-23T02:34:47.785Z,11.68
2022-10-23T02:37:15.543Z,11.67
2022-10-23T02:39:42.483Z,11.68
2022-10-23T02:42:33.788Z,11.70
2022-10-23T02:45:21.005Z,11.69
2022-10-23T02:47:56.994Z,11.69
2022-10-23T02:50:32.637Z,11.68
2022-10-23T02:53:18.534Z,11.68
2022-10-23T02:56:02.848Z,11.67
2022-10-23T02:59:05.547Z,11.67
2022-10-23T03:01:42.227Z,11.66
2022-10-23T03:04:11.196Z,11.64
2022-10-23T03:06:38.437Z,11.63
2022-10-23T03:09:07.815Z,11.65
2022-10-23T03:11:35.430Z,11.65
2022-10-23T03:14:02.919Z,11.66
2022-10-23T03:16:29.717Z,11.64
2022-10-23T03:18:56.531Z,11.65
2022-10-23T03:21:23.932Z,11.66
2022-10-23T03:23:52.637Z,11.67
2022-10-23T03:26:25.033Z,11.67
2022-10-23T03:28:51.703Z,11.67
2022-10-23T03:31:19.242Z,11.68
2022-10-23T03:33:46.253Z,11.70
2022-10-23T03:36:12.873Z,11.68
2022-10-23T03:38:40.051Z,11.66
2022-10-23T03:41:06.727Z,11.67
2022-10-23T03:43:33.492Z,11.65
2022-10-23T03:46:01.473Z,11.63
2022-10-23T03:48:28.199Z,11.60
2022-10-23T03:50:58.250Z,11.60
2022-10-23T03:53:24.985Z,11.59
2022-10-23T03:55:51.797Z,11.58
2022-10-23T03:58:18.534Z,11.61
2022-10-23T04:00:45.351Z,11.63
2022-10-23T04:03:12.248Z,11.63
2022-10-23T04:05:41.441Z,11.63
2022-10-23T04:08:09.400Z,11.63
2022-10-23T04:10:36.634Z,11.63
2022-10-23T04:13:03.364Z,11.64
2022-10-23T04:15:34.883Z,11.65
2022-10-23T04:18:02.188Z,11.64
2022-10-23T04:20:31.401Z,11.64
2022-10-23T04:23:01.844Z,11.64
2022-10-23T04:25:28.797Z,11.64
2022-10-23T04:27:55.589Z,11.65
2022-10-23T04:30:22.293Z,11.67
2022-10-23T04:32:52.325Z,11.65
2022-10-23T04:35:19.645Z,11.64
2022-10-23T04:37:46.709Z,11.62
2022-10-23T04:40:13.691Z,11.62
2022-10-23T04:42:40.592Z,11.62
2022-10-23T04:45:07.896Z,11.64
2022-10-23T04:47:35.388Z,11.67
2022-10-23T04:50:03.168Z,11.66
2022-10-23T04:52:48.671Z,11.66
2022-10-23T04:55:48.962Z,11.66
2022-10-23T04:58:23.007Z,11.66
2022-10-23T05:00:50.735Z,11.66
2022-10-23T05:03:25.034Z,11.67
2022-10-23T05:05:54.832Z,11.70
2022-10-23T05:08:27.884Z,11.70
2022-10-23T05:11:13.257Z,11.68
2022-10-23T05:13:44.297Z,11.68
2022-10-23T05:16:20.845Z,11.65
2022-10-23T05:18:48.465Z,11.63
2022-10-23T05:21:25.443Z,11.62
2022-10-23T05:23:54.070Z,11.63
2022-10-23T05:26:22.075Z,11.63
2022-10-23T05:28:49.334Z,11.65
2022-10-23T05:31:19.264Z,11.69
2022-10-23T05:33:50.397Z,11.72
2022-10-23T05:36:19.634Z,11.76
2022-10-23T05:38:46.709Z,11.79
2022-10-23T05:41:16.772Z,11.82
2022-10-23T05:43:45.606Z,11.85
2022-10-23T05:46:31.017Z,11.91
2022-10-23T05:49:15.310Z,11.97
2022-10-23T05:51:52.968Z,12.01
2022-10-23T05:54:29.961Z,12.03
2022-10-23T05:57:23.336Z,12.08
2022-10-23T05:59:52.222Z,12.12
2022-10-23T06:02:38.090Z,12.16
2022-10-23T06:05:10.538Z,12.20
2022-10-23T06:07:40.509Z,12.23
2022-10-23T06:10:08.018Z,12.25
2022-10-23T06:12:38.612Z,12.27
2022-10-23T06:15:06.479Z,12.28
2022-10-23T06:18:03.895Z,12.26
2022-10-23T06:20:37.762Z,12.31
2022-10-23T06:23:16.198Z,12.36
2022-10-23T06:26:04.368Z,12.41
2022-10-23T06:28:38.316Z,12.43
2022-10-23T06:31:06.387Z,12.47
2022-10-23T06:33:33.780Z,12.53
2022-10-23T06:36:04.909Z,12.60
2022-10-23T06:38:37.016Z,12.66
2022-10-23T06:41:04.703Z,12.67
2022-10-23T06:43:35.599Z,12.69
2022-10-23T06:46:16.466Z,12.67
2022-10-23T06:49:02.837Z,12.68
2022-10-23T06:51:33.272Z,12.69
2022-10-23T06:54:00.295Z,12.70
2022-10-23T06:56:50.766Z,12.70
2022-10-23T06:59:20.733Z,12.71
2022-10-23T07:01:49.479Z,12.69
2022-10-23T07:04:16.908Z,12.71
2022-10-23T07:06:44.113Z,12.75
2022-10-23T07:09:10.939Z,12.83
2022-10-23T07:12:03.937Z,12.95
2022-10-23T07:14:38.885Z,13.07
2022-10-23T07:17:06.437Z,13.19
2022-10-23T07:19:33.231Z,13.35
2022-10-23T07:22:14.902Z,13.54
2022-10-23T07:24:47.414Z,13.66
2022-10-23T07:27:20.435Z,13.81
2022-10-23T07:29:53.684Z,14.01
2022-10-23T07:32:20.578Z,14.23
2022-10-23T07:35:06.279Z,14.38
2022-10-23T07:37:34.744Z,14.48
2022-10-23T07:40:04.373Z,14.55
2022-10-23T07:42:31.928Z,14.63
2022-10-23T07:44:58.697Z,14.72
2022-10-23T07:47:25.444Z,14.86
2022-10-23T07:49:52.525Z,15.10
2022-10-23T07:52:20.166Z,15.51
2022-10-23T07:55:09.346Z,16.42
2022-10-23T07:57:41.408Z,17.86
2022-10-23T08:00:17.960Z,19.52
2022-10-23T08:03:10.220Z,20.77
2022-10-23T08:05:37.146Z,21.66
2022-10-23T08:08:05.421Z,22.13
2022-10-23T08:10:33.098Z,22.83
2022-10-23T08:13:04.520Z,23.68
2022-10-23T08:15:50.892Z,23.80
2022-10-23T08:18:45.371Z,23.09
2022-10-23T08:21:12.348Z,22.49
2022-10-23T08:23:39.360Z,21.98
2022-10-23T08:26:07.134Z,21.37
2022-10-23T08:28:35.441Z,20.78
2022-10-23T08:31:14.819Z,20.41
2022-10-23T08:33:46.695Z,20.07
2022-10-23T08:36:19.085Z,19.62
2022-10-23T08:38:46.322Z,20.05
2022-10-23T08:41:27.698Z,20.27
2022-10-23T08:44:21.313Z,20.99
2022-10-23T08:47:00.854Z,22.62
2022-10-23T08:49:43.766Z,24.28
2022-10-23T08:52:26.955Z,25.21
2022-10-23T08:54:53.819Z,25.88
2022-10-23T08:57:24.715Z,25.75
2022-10-23T09:00:00.088Z,25.45
2022-10-23T09:02:41.276Z,24.97
2022-10-23T09:05:15.838Z,24.41
2022-10-23T09:08:15.634Z,24.02
2022-10-23T09:11:20.697Z,23.72
2022-10-23T09:13:50.119Z,23.24
2022-10-23T09:16:50.253Z,22.96
2022-10-23T09:19:27.618Z,23.08
2022-10-23T09:21:55.826Z,23.08
2022-10-23T09:24:30.911Z,22.98
2022-10-23T09:26:59.631Z,23.58
2022-10-23T09:29:35.310Z,24.73
2022-10-23T09:32:06.331Z,24.72
2022-10-23T09:34:34.869Z,24.22
2022-10-23T09:37:17.234Z,23.55
2022-10-23T09:39:44.074Z,23.34
2022-10-23T09:42:24.247Z,23.36
2022-10-23T09:44:54.084Z,23.23
2022-10-23T09:47:24.238Z,23.47
2022-10-23T09:49:53.605Z,24.07
2022-10-23T09:52:30.127Z,24.48
2022-10-23T09:54:59.981Z,24.90
2022-10-23T09:57:44.420Z,24.81
2022-10-23T10:00:19.296Z,24.19
2022-10-23T10:03:04.774Z,23.58
2022-10-23T10:05:41.805Z,22.76
2022-10-23T10:08:13.194Z,22.41
2022-10-23T10:11:11.562Z,22.10
2022-10-23T10:13:52.158Z,22.51
2022-10-23T10:16:45.487Z,24.42
2022-10-23T10:19:39.557Z,25.99
2022-10-23T10:22:29.401Z,27.21
2022-10-23T10:25:03.585Z,27.49
2022-10-23T10:28:02.968Z,27.10
2022-10-23T10:30:44.434Z,26.38
2022-10-23T10:33:28.316Z,26.26
2022-10-23T10:36:05.113Z,27.54
2022-10-23T10:38:47.094Z,28.71
2022-10-23T10:41:28.062Z,28.74
2022-10-23T10:44:31.300Z,29.30
2022-10-23T10:47:04.350Z,30.51
2022-10-23T10:50:10.953Z,31.68
2022-10-23T10:53:26.934Z,32.37
2022-10-23T10:55:56.807Z,32.99
2022-10-23T10:58:42.314Z,33.25
2022-10-23T11:01:28.384Z,33.84
2022-10-23T11:04:10.817Z,33.88
2022-10-23T11:06:38.205Z,34.13
2022-10-23T11:09:20.958Z,34.28
2022-10-23T11:11:48.894Z,34.17
2022-10-23T11:14:24.928Z,34.27
2022-10-23T11:17:04.405Z,34.69
2022-10-23T11:19:42.140Z,34.67
2022-10-23T11:22:24.002Z,34.60
2022-10-23T11:25:02.812Z,33.23
2022-10-23T11:27:32.747Z,32.07
2022-10-23T11:30:25.269Z,30.71
2022-10-23T11:32:54.740Z,29.83
2022-10-23T11:35:30.268Z,28.47
2022-10-23T11:38:08.695Z,26.34
2022-10-23T11:40:35.618Z,25.69
2022-10-23T11:43:02.317Z,25.25
2022-10-23T11:45:35.411Z,24.81
2022-10-23T11:48:18.645Z,24.21
2022-10-23T11:50:48.030Z,23.77
2022-10-23T11:53:38.508Z,23.39
2022-10-23T11:56:06.294Z,22.87
2022-10-23T11:58:45.184Z,22.57
2022-10-23T12:01:40.953Z,22.29
2022-10-23T12:04:17.720Z,21.89
2022-10-23T12:06:49.723Z,21.59
2022-10-23T12:09:51.641Z,21.36
2022-10-23T12:12:42.016Z,21.17
2022-10-23T12:15:21.682Z,20.99
2022-10-23T12:17:50.726Z,20.64
2022-10-23T12:20:37.244Z,20.40
2022-10-23T12:23:29.795Z,20.24
2022-10-23T12:26:33.822Z,20.05
2022-10-23T12:29:40.413Z,19.89
2022-10-23T12:32:24.881Z,19.68
2022-10-23T12:35:17.840Z,19.51
2022-10-23T12:38:00.416Z,19.29
2022-10-23T12:40:29.621Z,19.09
2022-10-23T12:43:00.151Z,18.95
2022-10-23T12:45:36.579Z,18.79
2022-10-23T12:48:03.819Z,18.70
2022-10-23T12:50:32.577Z,18.55
2022-10-23T12:53:06.021Z,18.38
2022-10-23T12:58:34.908Z,18.07
2022-10-23T13:01:05.611Z,17.96
2022-10-23T13:03:33.691Z,17.90
2022-10-23T13:06:03.202Z,17.84
2022-10-23T13:08:40.234Z,17.75
2022-10-23T13:11:36.522Z,17.61
2022-10-23T13:14:13.629Z,17.50
2022-10-23T13:16:40.465Z,17.32
2022-10-23T13:19:22.313Z,17.09
2022-10-23T13:21:49.142Z,16.93
2022-10-23T13:24:21.217Z,16.81
2022-10-23T13:26:48.632Z,16.67
2022-10-23T13:29:22.924Z,16.62
2022-10-23T13:31:50.353Z,16.60
2022-10-23T13:34:28.722Z,16.58
2022-10-23T13:36:58.251Z,16.53
2022-10-23T13:39:29.249Z,16.45
2022-10-23T13:42:00.925Z,16.35
2022-10-23T13:44:28.441Z,16.27
2022-10-23T13:46:55.997Z,16.24
2022-10-23T13:49:22.750Z,16.20
2022-10-23T13:51:54.456Z,16.16
2022-10-23T13:56:58.906Z,16.06
2022-10-23T13:59:25.581Z,15.99
2022-10-23T14:01:52.874Z,15.93
2022-10-23T14:04:20.588Z,15.90
2022-10-23T14:06:47.462Z,15.82
2022-10-23T14:09:16.592Z,15.76
2022-10-23T14:11:44.260Z,15.67
2022-10-23T14:14:11.113Z,15.61
2022-10-23T14:16:37.810Z,15.57
2022-10-23T14:19:04.764Z,15.50
2022-10-23T14:21:31.665Z,15.45
2022-10-23T14:23:58.811Z,15.39
2022-10-23T14:26:29.830Z,15.31
2022-10-23T14:29:00.661Z,15.26
2022-10-23T14:31:31.188Z,15.19
2022-10-23T14:34:00.113Z,15.14
2022-10-23T14:36:34.245Z,15.08
2022-10-23T14:39:10.055Z,15.02
2022-10-23T14:41:39.876Z,14.97
2022-10-23T14:44:07.018Z,14.92
2022-10-23T14:46:35.060Z,14.86
2022-10-23T14:49:02.604Z,14.82
2022-10-23T14:51:30.165Z,14.78
2022-10-23T14:54:02.357Z,14.74
2022-10-23T14:56:31.808Z,14.69
2022-10-23T14:59:02.071Z,14.63
2022-10-23T15:04:23.612Z,14.49
2022-10-23T15:06:50.841Z,14.46
2022-10-23T15:09:19.368Z,14.44
2022-10-23T15:11:46.809Z,14.40
2022-10-23T15:14:13.526Z,14.36
2022-10-23T15:16:43.305Z,14.30
2022-10-23T15:19:15.210Z,14.23
2022-10-23T15:21:46.866Z,14.16
2022-10-23T15:24:15.587Z,14.10
2022-10-23T15:26:43.479Z,14.02
2022-10-23T15:29:11.363Z,13.92
2022-10-23T15:31:38.080Z,13.81
2022-10-23T15:34:05.846Z,13.74
2022-10-23T15:36:33.044Z,13.63
2022-10-23T15:39:00.822Z,13.52
2022-10-23T15:41:31.884Z,13.41
2022-10-23T15:44:02.541Z,13.30
2022-10-23T15:46:29.606Z,13.21
2022-10-23T15:48:56.758Z,13.06
2022-10-23T15:51:25.555Z,12.95
2022-10-23T15:53:52.703Z,12.86
2022-10-23T15:56:19.642Z,12.77
2022-10-23T15:58:46.601Z,12.69
2022-10-23T16:01:13.568Z,12.62
2022-10-23T16:03:40.788Z,12.56
2022-10-23T16:06:13.502Z,12.49
2022-10-23T16:08:43.117Z,12.36
2022-10-23T16:11:32.865Z,12.25
2022-10-23T16:14:02.597Z,12.19
2022-10-23T16:16:30.418Z,12.12
2022-10-23T16:19:02.492Z,12.09
2022-10-23T16:21:35.313Z,12.07
2022-10-23T16:24:04.713Z,12.01
2022-10-23T16:26:33.657Z,11.92
2022-10-23T16:29:03.837Z,11.85
2022-10-23T16:31:31.089Z,11.79
2022-10-23T16:34:00.575Z,11.72
2022-10-23T16:36:28.191Z,11.64
2022-10-23T16:39:13.779Z,11.56
2022-10-23T16:41:59.183Z,11.47
2022-10-23T16:44:33.033Z,11.41
2022-10-23T16:47:03.394Z,11.40
2022-10-23T16:49:31.640Z,11.37
2022-10-23T16:51:58.317Z,11.33
2022-10-23T16:54:25.049Z,11.30
2022-10-23T16:56:51.824Z,11.22
2022-10-23T16:59:18.602Z,11.08
2022-10-23T17:01:45.421Z,10.94
2022-10-23T17:04:12.551Z,10.81
2022-10-23T17:06:39.228Z,10.72
2022-10-23T17:09:06.839Z,10.65
2022-10-23T17:11:38.469Z,10.51
2022-10-23T17:14:08.222Z,10.41
2022-10-23T17:16:44.018Z,10.30
2022-10-23T17:19:20.933Z,10.16
2022-10-23T17:21:55.336Z,10.08
2022-10-23T17:24:22.973Z,10.02
2022-10-23T17:26:50.005Z,10.02
2022-10-23T17:29:17.755Z,10.02
2022-10-23T17:31:46.970Z,10.04
2022-10-23T17:34:17.415Z,9.98
2022-10-23T17:36:48.924Z,9.92
2022-10-23T17:39:22.456Z,9.89
2022-10-23T17:41:49.716Z,9.85
2022-10-23T17:44:17.169Z,9.74
2022-10-23T17:46:43.823Z,9.62
2022-10-23T17:49:11.495Z,9.53
2022-10-23T17:51:38.499Z,9.46
2022-10-23T17:54:08.176Z,9.38
2022-10-23T17:56:37.125Z,9.35
2022-10-23T17:59:07.964Z,9.28
2022-10-23T18:01:34.808Z,9.20
2022-10-23T18:04:04.343Z,9.18
2022-10-23T18:06:34.676Z,9.14
2022-10-23T18:09:03.900Z,9.12
2022-10-23T18:11:34.507Z,9.08
2022-10-23T18:14:02.297Z,8.97
2022-10-23T18:16:29.218Z,8.87
2022-10-23T18:18:58.136Z,8.75
2022-10-23T18:21:27.176Z,8.73
2022-10-23T18:23:54.562Z,8.77
2022-10-23T18:26:27.360Z,8.80
2022-10-23T18:28:56.748Z,8.80
2022-10-23T18:31:26.410Z,8.80
2022-10-23T18:34:03.514Z,8.73
2022-10-23T18:36:33.300Z,8.74
2022-10-23T18:39:00.282Z,8.70
2022-10-23T18:41:27.546Z,8.73
2022-10-23T18:43:54.479Z,8.78
2022-10-23T18:46:21.538Z,8.77
2022-10-23T18:48:50.184Z,8.73
2022-10-23T18:51:23.754Z,8.69
2022-10-23T18:53:51.269Z,8.55
2022-10-23T18:56:22.713Z,8.49
2022-10-23T18:58:55.966Z,8.49
2022-10-23T19:01:24.295Z,8.47
2022-10-23T19:03:51.251Z,8.52
2022-10-23T19:06:19.706Z,8.55
2022-10-23T19:08:47.264Z,8.50
2022-10-23T19:11:15.863Z,8.46
2022-10-23T19:13:42.905Z,8.44
2022-10-23T19:16:12.562Z,8.42
2022-10-23T19:18:43.097Z,8.41
2022-10-23T19:21:10.739Z,8.36
2022-10-23T19:23:40.182Z,8.28
2022-10-23T19:26:10.062Z,8.20
2022-10-23T19:28:39.528Z,8.18
2022-10-23T19:31:09.378Z,8.07
2022-10-23T19:33:38.363Z,7.99
2022-10-23T19:36:07.899Z,7.99
2022-10-23T19:38:39.598Z,7.92
2022-10-23T19:41:06.858Z,7.80
2022-10-23T19:43:33.759Z,7.63
2022-10-23T19:46:03.970Z,7.43
2022-10-23T19:48:33.171Z,7.37
2022-10-23T19:50:59.878Z,7.29
2022-10-23T19:53:26.662Z,7.12
2022-10-23T19:56:07.607Z,7.16
2022-10-23T19:58:34.642Z,7.16
2022-10-23T20:01:14.064Z,7.14
2022-10-23T20:03:42.141Z,7.00
2022-10-23T20:06:14.327Z,6.96
2022-10-23T20:08:41.698Z,6.94
2022-10-23T20:11:20.533Z,6.92
2022-10-23T20:13:48.972Z,6.91
2022-10-23T20:16:20.484Z,6.82
2022-10-23T20:18:47.674Z,6.82
2022-10-23T20:21:14.954Z,6.80
2022-10-23T20:23:42.165Z,6.81
2022-10-23T20:26:13.088Z,6.94
2022-10-23T20:28:39.930Z,7.02
2022-10-23T20:31:10.949Z,7.01
2022-10-23T20:33:40.053Z,7.00
2022-10-23T20:36:09.658Z,7.08
2022-10-23T20:38:36.581Z,7.09
2022-10-23T20:41:05.216Z,7.09
2022-10-23T20:43:35.817Z,7.05
2022-10-23T20:46:04.749Z,7.07
2022-10-23T20:48:35.269Z,7.10
2022-10-23T20:51:06.119Z,7.09
2022-10-23T20:53:35.543Z,7.10
2022-10-23T20:56:11.140Z,7.06
2022-10-23T20:58:37.898Z,6.97
2022-10-23T21:01:07.678Z,6.95
2022-10-23T21:03:35.245Z,6.87
2022-10-23T21:06:07.345Z,6.84
2022-10-23T21:08:34.720Z,6.80
2022-10-23T21:11:01.377Z,6.73
2022-10-23T21:13:29.229Z,6.65
2022-10-23T21:15:56.685Z,6.58
2022-10-23T21:18:34.050Z,6.56
2022-10-23T21:21:12.346Z,6.47
2022-10-23T21:23:39.475Z,6.37
2022-10-23T21:26:07.615Z,6.36
2022-10-23T21:28:34.650Z,6.41
2022-10-23T21:31:03.262Z,6.39
2022-10-23T21:33:30.178Z,6.38
2022-10-23T21:35:58.314Z,6.36
2022-10-23T21:38:26.383Z,6.43
2022-10-23T21:40:53.064Z,6.50
2022-10-23T21:43:20.410Z,6.60
2022-10-23T21:45:47.078Z,6.60
2022-10-23T21:48:13.837Z,6.56
2022-10-23T21:50:40.903Z,6.48
2022-10-23T21:53:07.654Z,6.41
2022-10-23T21:55:34.407Z,6.29
2022-10-23T21:58:01.074Z,6.22
2022-10-23T22:00:27.792Z,6.17
2022-10-23T22:02:54.509Z,6.17
2022-10-23T22:05:21.293Z,6.17
2022-10-23T22:07:48.105Z,6.13
2022-10-23T22:10:14.994Z,6.13
2022-10-23T22:12:41.677Z,6.03
2022-10-23T22:15:08.930Z,5.99
2022-10-23T22:17:35.692Z,6.01
2022-10-23T22:20:02.606Z,6.01
2022-10-23T22:22:29.300Z,6.04
2022-10-23T22:24:55.960Z,6.06
2022-10-23T22:27:22.725Z,6.12
2022-10-23T22:29:49.445Z,6.19
2022-10-23T22:32:16.047Z,6.15
2022-10-23T22:34:52.987Z,6.18
2022-10-23T22:37:20.272Z,6.15
2022-10-23T22:39:50.354Z,6.16
2022-10-23T22:42:17.233Z,6.16
2022-10-23T22:44:43.791Z,6.22
2022-10-23T22:47:10.526Z,6.26
2022-10-23T22:49:37.862Z,6.30
2022-10-23T22:52:04.724Z,6.33
2022-10-23T22:54:31.894Z,6.37
2022-10-23T22:56:58.621Z,6.44
2022-10-23T22:59:25.509Z,6.40
2022-10-23T23:01:52.306Z,6.44
2022-10-23T23:04:37.436Z,6.49
2022-10-23T23:07:08.223Z,6.61
2022-10-23T23:09:37.128Z,6.66
2022-10-23T23:12:05.022Z,6.79
2022-10-23T23:14:31.701Z,6.84
2022-10-23T23:16:58.883Z,6.86
2022-10-23T23:19:26.165Z,6.84
2022-10-23T23:21:57.722Z,6.86
2022-10-23T23:24:25.291Z,6.88
2022-10-23T23:26:52.061Z,6.85
2022-10-23T23:29:19.063Z,6.83
2022-10-23T23:31:45.974Z,6.89
2022-10-23T23:34:13.087Z,7.00
2022-10-23T23:36:40.594Z,7.07
2022-10-23T23:39:07.472Z,7.17
2022-10-23T23:41:34.212Z,7.23
2022-10-23T23:44:00.811Z,7.24
2022-10-23T23:46:27.495Z,7.29
2022-10-23T23:48:54.218Z,7.24
2022-10-23T23:51:24.069Z,7.18
2022-10-23T23:53:51.990Z,7.10
2022-10-23T23:56:19.365Z,7.00
2022-10-23T23:58:46.264Z,6.92
